createdAt,value
2018-01-15T00:00:19.266Z,-0.40
2018-01-15T00:04:57.210Z,-0.30
2018-01-15T00:06:58.723Z,-0.20
2018-01-15T00:08:59.715Z,-0.30
2018-01-15T00:11:02.914Z,-0.20
2018-01-15T00:13:03.948Z,-0.10
2018-01-15T00:15:32.929Z,0.00
2018-01-15T00:17:44.283Z,0.00
2018-01-15T00:19:45.362Z,0.00
2018-01-15T00:21:49.733Z,0.10
2018-01-15T00:23:51.815Z,0.00
2018-01-15T00:25:57.069Z,0.10
2018-01-15T00:27:58.223Z,0.00
2018-01-15T00:29:59.476Z,0.10
2018-01-15T00:32:00.486Z,0.10
2018-01-15T00:34:01.662Z,0.10
2018-01-15T00:36:15.890Z,0.00
2018-01-15T00:38:17.459Z,0.10
2018-01-15T00:40:18.554Z,0.00
2018-01-15T00:42:33.315Z,0.10
2018-01-15T00:44:35.482Z,0.20
2018-01-15T00:46:36.538Z,0.10
2018-01-15T00:48:37.511Z,0.10
2018-01-15T00:50:38.831Z,0.10
2018-01-15T00:52:39.909Z,0.10
2018-01-15T00:54:41.021Z,0.20
2018-01-15T00:56:42.069Z,0.10
2018-01-15T00:58:43.041Z,0.20
2018-01-15T01:01:05.124Z,0.20
2018-01-15T01:03:06.435Z,0.40
2018-01-15T01:05:07.491Z,0.20
2018-01-15T01:12:01.076Z,0.20
2018-01-15T01:14:02.838Z,0.10
2018-01-15T01:16:04.079Z,0.30
2018-01-15T01:18:06.577Z,0.20
2018-01-15T01:20:07.854Z,0.10
2018-01-15T01:22:09.142Z,0.10
2018-01-15T01:24:12.827Z,0.10
2018-01-15T01:30:20.944Z,0.20
2018-01-15T01:32:28.395Z,0.10
2018-01-15T01:34:29.651Z,0.30
2018-01-15T01:36:30.677Z,0.30
2018-01-15T01:38:31.748Z,0.20
2018-01-15T01:40:32.857Z,0.20
2018-01-15T01:42:34.175Z,0.20
2018-01-15T01:49:50.744Z,0.30
2018-01-15T01:51:51.850Z,0.10
2018-01-15T01:53:53.555Z,0.10
2018-01-15T01:55:54.760Z,0.00
2018-01-15T01:57:56.395Z,0.00
2018-01-15T01:59:57.559Z,-0.10
2018-01-15T02:01:58.919Z,0.00
2018-01-15T02:04:00.302Z,-0.10
2018-01-15T02:06:02.001Z,0.00
2018-01-15T02:08:03.345Z,0.10
2018-01-15T02:10:09.791Z,0.00
2018-01-15T02:12:28.732Z,0.00
2018-01-15T02:17:23.615Z,-0.10
2018-01-15T02:19:24.986Z,0.00
2018-01-15T02:21:28.083Z,-0.10
2018-01-15T02:23:32.371Z,-0.10
2018-01-15T02:25:33.396Z,-0.10
2018-01-15T02:27:34.455Z,-0.10
2018-01-15T02:34:49.756Z,-0.20
2018-01-15T02:39:29.069Z,-0.20
2018-01-15T02:41:30.847Z,-0.10
2018-01-15T02:43:31.929Z,0.00
2018-01-15T02:45:32.905Z,0.10
2018-01-15T02:47:33.981Z,0.20
2018-01-15T02:49:35.246Z,0.20
2018-01-15T02:51:36.273Z,0.30
2018-01-15T02:53:37.292Z,0.20
2018-01-15T02:55:38.409Z,0.20
2018-01-15T02:57:41.476Z,0.20
2018-01-15T02:59:42.644Z,0.20
2018-01-15T03:01:57.879Z,0.20
2018-01-15T03:04:09.291Z,0.20
2018-01-15T03:06:14.003Z,0.20
2018-01-15T03:08:15.802Z,0.30
2018-01-15T03:10:18.075Z,0.30
2018-01-15T03:12:19.095Z,0.30
2018-01-15T03:14:20.136Z,0.30
2018-01-15T03:16:32.704Z,0.30
2018-01-15T03:18:50.523Z,0.40
2018-01-15T03:20:55.619Z,0.30
2018-01-15T03:25:15.900Z,0.30
2018-01-15T03:27:17.146Z,0.40
2018-01-15T03:29:18.179Z,0.50
2018-01-15T03:31:19.177Z,0.50
2018-01-15T03:41:36.672Z,0.40
2018-01-15T03:43:37.781Z,0.50
2018-01-15T03:45:40.494Z,0.40
2018-01-15T03:55:27.181Z,0.20
2018-01-15T03:57:28.286Z,0.20
2018-01-15T03:59:29.413Z,0.20
2018-01-15T04:04:05.874Z,0.20
2018-01-15T04:08:45.233Z,0.20
2018-01-15T04:10:46.469Z,0.40
2018-01-15T04:35:21.890Z,0.30
2018-01-15T04:44:57.330Z,0.10
2018-01-15T04:47:11.699Z,0.00
2018-01-15T04:49:12.975Z,0.00
2018-01-15T04:51:14.982Z,0.00
2018-01-15T05:01:25.216Z,0.30
2018-01-15T05:03:31.839Z,0.30
2018-01-15T05:05:42.231Z,0.30
2018-01-15T05:08:05.352Z,0.30
2018-01-15T05:10:20.581Z,0.30
2018-01-15T05:14:30.651Z,0.30
2018-01-15T05:21:35.074Z,0.40
2018-01-15T05:23:36.542Z,0.40
2018-01-15T05:28:06.011Z,0.70
2018-01-15T05:30:14.687Z,0.80
2018-01-15T05:35:09.919Z,0.80
2018-01-15T05:37:33.728Z,0.80
2018-01-15T05:41:49.470Z,0.80
2018-01-15T05:49:03.196Z,0.80
2018-01-15T05:51:04.248Z,0.70
2018-01-15T05:53:05.276Z,0.80
2018-01-15T06:07:37.419Z,0.80
2018-01-15T06:11:53.422Z,0.90
2018-01-15T06:16:23.436Z,0.80
2018-01-15T06:18:25.158Z,0.80
2018-01-15T06:20:30.300Z,0.80
2018-01-15T06:22:53.478Z,0.70
2018-01-15T06:24:54.931Z,0.80
2018-01-15T06:26:55.856Z,0.80
2018-01-15T06:28:56.823Z,0.80
2018-01-15T06:30:58.449Z,0.90
2018-01-15T06:33:00.050Z,0.90
2018-01-15T06:35:10.328Z,0.90
2018-01-15T06:37:11.510Z,0.90
2018-01-15T06:39:12.544Z,1.00
2018-01-15T06:41:13.505Z,1.00
2018-01-15T06:43:16.404Z,1.00
2018-01-15T06:45:19.643Z,1.00
2018-01-15T06:47:20.708Z,1.00
2018-01-15T06:49:22.036Z,1.00
2018-01-15T06:51:23.027Z,1.10
2018-01-15T06:53:24.004Z,1.10
2018-01-15T06:55:25.064Z,1.00
2018-01-15T06:57:26.007Z,1.20
2018-01-15T06:59:26.970Z,1.10
2018-01-15T07:01:28.156Z,1.10
2018-01-15T07:03:29.121Z,1.20
2018-01-15T07:05:30.075Z,1.20
2018-01-15T07:07:31.026Z,1.20
2018-01-15T07:09:32.056Z,1.20
2018-01-15T07:11:33.027Z,1.20
2018-01-15T07:13:34.107Z,1.30
2018-01-15T07:15:35.867Z,1.20
2018-01-15T07:17:36.819Z,1.20
2018-01-15T07:19:37.800Z,1.20
2018-01-15T07:21:39.523Z,1.20
2018-01-15T07:23:40.592Z,1.20
2018-01-15T07:25:41.593Z,1.30
2018-01-15T07:27:42.700Z,1.20
2018-01-15T07:29:43.756Z,1.30
2018-01-15T07:31:44.801Z,1.30
2018-01-15T07:33:45.798Z,1.30
2018-01-15T07:35:46.765Z,1.40
2018-01-15T07:37:47.807Z,1.30
2018-01-15T07:39:48.925Z,1.30
2018-01-15T07:41:49.933Z,1.30
2018-01-15T07:43:50.924Z,1.40
2018-01-15T07:45:52.619Z,1.40
2018-01-15T07:47:54.931Z,1.40
2018-01-15T07:49:56.339Z,1.40
2018-01-15T07:51:57.417Z,1.50
2018-01-15T07:53:58.408Z,1.50
2018-01-15T07:55:59.751Z,1.50
2018-01-15T07:58:00.768Z,1.60
2018-01-15T08:00:02.593Z,1.80
2018-01-15T08:04:14.997Z,1.80
2018-01-15T08:06:16.865Z,1.70
2018-01-15T08:08:17.857Z,1.70
2018-01-15T08:10:18.902Z,1.70
2018-01-15T08:12:19.995Z,1.70
2018-01-15T08:14:21.088Z,1.70
2018-01-15T08:16:22.479Z,1.80
2018-01-15T08:18:23.508Z,1.90
2018-01-15T08:20:24.541Z,1.90
2018-01-15T08:22:25.532Z,2.10
2018-01-15T08:24:26.487Z,2.20
2018-01-15T08:26:27.768Z,2.20
2018-01-15T08:28:28.960Z,2.20
2018-01-15T08:30:30.550Z,2.20
2018-01-15T08:32:31.623Z,2.30
2018-01-15T08:34:32.818Z,2.30
2018-01-15T08:36:34.052Z,2.40
2018-01-15T08:38:48.138Z,2.40
2018-01-15T08:40:49.216Z,2.60
2018-01-15T08:42:50.291Z,2.70
2018-01-15T08:44:51.444Z,2.70
2018-01-15T08:46:52.884Z,2.80
2018-01-15T08:48:53.950Z,2.80
2018-01-15T08:51:14.909Z,2.80
2018-01-15T08:53:16.770Z,2.80
2018-01-15T08:57:55.937Z,2.80
2018-01-15T08:59:57.023Z,2.80
2018-01-15T09:01:58.272Z,2.90
2018-01-15T09:03:59.262Z,3.00
2018-01-15T09:06:01.159Z,3.20
2018-01-15T09:08:02.127Z,3.20
2018-01-15T09:10:03.593Z,3.20
2018-01-15T09:12:04.637Z,3.20
2018-01-15T09:14:05.642Z,3.10
2018-01-15T09:16:08.221Z,3.20
2018-01-15T09:18:16.409Z,3.20
2018-01-15T09:22:56.502Z,3.20
2018-01-15T09:24:57.567Z,3.20
2018-01-15T09:26:58.732Z,3.20
2018-01-15T09:28:59.879Z,3.20
2018-01-15T09:31:01.074Z,3.20
2018-01-15T09:33:02.395Z,3.30
2018-01-15T09:40:20.496Z,3.70
2018-01-15T09:42:22.372Z,3.70
2018-01-15T09:44:23.382Z,3.70
2018-01-15T09:46:25.216Z,3.80
2018-01-15T09:48:26.314Z,3.80
2018-01-15T09:50:29.462Z,3.80
2018-01-15T09:52:30.598Z,3.80
2018-01-15T09:54:31.674Z,3.70
2018-01-15T10:09:49.608Z,3.70
2018-01-15T10:16:36.583Z,3.60
2018-01-15T10:20:58.358Z,3.70
2018-01-15T10:27:45.677Z,3.70
2018-01-15T10:37:23.976Z,3.80
2018-01-15T10:39:27.315Z,3.80
2018-01-15T10:41:28.452Z,3.80
2018-01-15T10:43:40.091Z,3.90
2018-01-15T10:45:41.168Z,3.90
2018-01-15T10:47:42.473Z,3.90
2018-01-15T10:49:44.376Z,3.90
2018-01-15T10:51:45.992Z,4.00
2018-01-15T10:53:47.394Z,3.90
2018-01-15T10:55:50.711Z,4.00
2018-01-15T10:57:52.277Z,4.00
2018-01-15T11:00:00.469Z,4.00
2018-01-15T11:02:06.926Z,4.00
2018-01-15T11:04:26.408Z,4.00
2018-01-15T11:06:38.484Z,4.10
2018-01-15T11:08:42.134Z,4.10
2018-01-15T11:10:43.822Z,4.10
2018-01-15T11:17:25.928Z,4.10
2018-01-15T11:21:54.558Z,4.10
2018-01-15T11:35:27.198Z,4.30
2018-01-15T11:37:38.617Z,4.30
2018-01-15T11:39:39.604Z,4.30
2018-01-15T11:41:41.531Z,4.40
2018-01-15T11:43:42.934Z,4.40
2018-01-15T11:45:45.005Z,4.40
2018-01-15T11:47:47.008Z,4.30
2018-01-15T11:49:48.645Z,4.30
2018-01-15T11:51:49.720Z,4.30
2018-01-15T11:53:50.744Z,4.20
2018-01-15T11:55:52.578Z,4.20
2018-01-15T11:57:53.823Z,4.20
2018-01-15T11:59:54.843Z,4.20
2018-01-15T12:01:57.621Z,4.20
2018-01-15T12:03:58.840Z,4.20
2018-01-15T12:05:59.985Z,4.30
2018-01-15T12:08:01.103Z,4.20
2018-01-15T12:10:02.334Z,4.20
2018-01-15T12:12:04.536Z,4.20
2018-01-15T12:14:06.899Z,4.20
2018-01-15T12:16:09.326Z,4.20
2018-01-15T12:18:10.348Z,4.20
2018-01-15T12:20:13.005Z,4.30
2018-01-15T12:22:14.864Z,4.30
2018-01-15T12:24:19.379Z,4.20
2018-01-15T12:26:20.506Z,4.20
2018-01-15T12:28:22.914Z,4.20
2018-01-15T12:30:24.230Z,4.30
2018-01-15T12:32:25.310Z,4.20
2018-01-15T12:34:31.776Z,4.30
2018-01-15T12:39:21.357Z,4.40
2018-01-15T12:41:22.433Z,4.40
2018-01-15T12:43:23.731Z,4.30
2018-01-15T12:45:24.791Z,4.30
2018-01-15T12:47:26.734Z,4.40
2018-01-15T12:49:28.724Z,4.40
2018-01-15T12:54:08.795Z,4.40
2018-01-15T12:56:28.031Z,4.50
2018-01-15T12:58:29.855Z,4.50
2018-01-15T13:03:08.644Z,4.50
2018-01-15T13:07:58.819Z,4.50
2018-01-15T13:10:01.092Z,4.50
2018-01-15T13:12:02.147Z,4.40
2018-01-15T13:14:08.605Z,4.40
2018-01-15T13:16:09.648Z,4.40
2018-01-15T13:18:10.663Z,4.40
2018-01-15T13:20:11.712Z,4.40
2018-01-15T13:22:12.988Z,4.40
2018-01-15T13:24:14.009Z,4.30
2018-01-15T13:26:28.150Z,4.30
2018-01-15T13:28:29.140Z,4.30
2018-01-15T13:30:30.093Z,4.30
2018-01-15T13:32:31.135Z,4.30
2018-01-15T13:34:33.696Z,4.30
2018-01-15T13:36:34.717Z,4.30
2018-01-15T13:38:35.687Z,4.30
2018-01-15T13:40:36.679Z,4.30
2018-01-15T13:42:49.867Z,4.20
2018-01-15T13:44:51.168Z,4.20
2018-01-15T13:46:52.882Z,4.20
2018-01-15T13:48:58.002Z,4.20
2018-01-15T13:50:59.106Z,4.20
2018-01-15T13:53:00.162Z,4.20
2018-01-15T13:55:01.234Z,4.20
2018-01-15T13:57:02.979Z,4.20
2018-01-15T13:59:04.112Z,4.20
2018-01-15T14:01:05.109Z,4.20
2018-01-15T14:03:10.280Z,4.30
2018-01-15T14:05:16.087Z,4.30
2018-01-15T14:07:17.345Z,4.20
2018-01-15T14:09:29.603Z,4.20
2018-01-15T14:11:30.591Z,4.20
2018-01-15T14:13:31.592Z,4.30
2018-01-15T14:15:32.571Z,4.30
2018-01-15T14:17:33.564Z,4.30
2018-01-15T14:19:34.535Z,4.30
2018-01-15T14:21:35.781Z,4.20
2018-01-15T14:23:36.775Z,4.20
2018-01-15T14:25:37.807Z,4.20
2018-01-15T14:27:38.918Z,4.30
2018-01-15T14:29:39.916Z,4.30
2018-01-15T14:31:41.002Z,4.30
2018-01-15T14:33:42.318Z,4.30
2018-01-15T14:35:43.999Z,4.40
2018-01-15T14:37:45.210Z,4.40
2018-01-15T14:39:46.168Z,4.40
2018-01-15T14:41:47.242Z,4.30
2018-01-15T14:43:48.251Z,4.30
2018-01-15T14:45:49.286Z,4.40
2018-01-15T14:47:50.300Z,4.30
2018-01-15T14:49:51.581Z,4.30
2018-01-15T14:51:57.879Z,4.30
2018-01-15T14:56:45.350Z,4.30
2018-01-15T14:58:48.945Z,4.30
2018-01-15T15:03:20.861Z,4.40
2018-01-15T15:05:22.038Z,4.40
2018-01-15T15:07:23.088Z,4.40
2018-01-15T15:09:44.940Z,4.30
2018-01-15T15:11:46.192Z,4.40
2018-01-15T15:13:47.291Z,4.30
2018-01-15T15:15:48.335Z,4.50
2018-01-15T15:17:49.402Z,4.40
2018-01-15T15:19:50.740Z,4.40
2018-01-15T15:21:53.006Z,4.40
2018-01-15T15:24:14.745Z,4.40
2018-01-15T15:30:43.807Z,4.40
2018-01-15T15:32:52.082Z,4.40
2018-01-15T15:35:17.284Z,4.50
2018-01-15T15:37:19.320Z,4.40
2018-01-15T15:44:29.576Z,4.40
2018-01-15T15:49:25.930Z,4.40
2018-01-15T15:53:35.538Z,4.60
2018-01-15T15:55:37.683Z,4.50
2018-01-15T16:02:48.271Z,4.50
2018-01-15T16:04:52.148Z,4.60
2018-01-15T16:06:53.253Z,4.60
2018-01-15T16:11:14.360Z,4.60
2018-01-15T16:13:15.399Z,4.60
2018-01-15T16:15:16.387Z,4.60
2018-01-15T16:17:18.997Z,4.60
2018-01-15T16:19:20.081Z,4.50
2018-01-15T16:21:21.002Z,4.50
2018-01-15T16:23:22.266Z,4.50
2018-01-15T16:25:23.712Z,4.60
2018-01-15T16:27:24.704Z,4.40
2018-01-15T16:29:25.843Z,4.50
2018-01-15T16:31:26.815Z,4.40
2018-01-15T16:35:34.755Z,4.40
2018-01-15T16:40:32.407Z,4.40
2018-01-15T16:42:44.472Z,4.40
2018-01-15T16:44:45.581Z,4.40
2018-01-15T16:46:46.534Z,4.40
2018-01-15T16:48:48.336Z,4.40
2018-01-15T16:50:50.551Z,4.40
2018-01-15T16:52:54.533Z,4.40
2018-01-15T16:54:55.530Z,4.50
2018-01-15T16:56:56.480Z,4.50
2018-01-15T16:58:57.750Z,4.50
2018-01-15T17:01:04.747Z,4.50
2018-01-15T17:03:05.796Z,4.50
2018-01-15T17:05:09.335Z,4.50
2018-01-15T17:07:10.582Z,4.50
2018-01-15T17:09:11.615Z,4.60
2018-01-15T17:11:12.750Z,4.60
2018-01-15T17:13:13.791Z,4.50
2018-01-15T17:15:15.549Z,4.60
2018-01-15T17:17:16.635Z,4.50
2018-01-15T17:19:17.599Z,4.50
2018-01-15T17:21:18.554Z,4.60
2018-01-15T17:23:23.285Z,4.50
2018-01-15T17:25:24.390Z,4.50
2018-01-15T17:27:25.421Z,4.60
2018-01-15T17:29:26.484Z,4.60
2018-01-15T17:31:28.588Z,4.60
2018-01-15T17:33:29.654Z,4.60
2018-01-15T17:35:37.719Z,4.60
2018-01-15T17:37:39.830Z,4.60
2018-01-15T17:39:47.604Z,4.60
2018-01-15T17:41:48.612Z,4.70
2018-01-15T17:43:58.210Z,4.70
2018-01-15T17:45:59.252Z,4.60
2018-01-15T17:48:00.199Z,4.60
2018-01-15T17:50:01.187Z,4.60
2018-01-15T17:52:02.216Z,4.70
2018-01-15T17:54:09.972Z,4.60
2018-01-15T17:56:12.818Z,4.60
2018-01-15T17:58:13.877Z,4.60
2018-01-15T18:03:10.722Z,4.70
2018-01-15T18:05:11.823Z,4.60
2018-01-15T18:07:15.353Z,4.70
2018-01-15T18:19:48.109Z,4.70
2018-01-15T18:22:13.917Z,4.80
2018-01-15T18:24:14.990Z,4.80
2018-01-15T18:26:16.171Z,4.90
2018-01-15T18:28:30.656Z,5.00
2018-01-15T18:33:14.711Z,5.00
2018-01-15T18:35:19.426Z,5.20
2018-01-15T18:39:33.293Z,5.10
2018-01-15T18:41:34.502Z,5.10
2018-01-15T18:43:35.637Z,5.10
2018-01-15T18:45:41.186Z,5.10
2018-01-15T18:48:24.160Z,5.20
2018-01-15T18:50:25.221Z,5.10
2018-01-15T18:52:37.943Z,5.20
2018-01-15T18:54:39.238Z,5.20
2018-01-15T18:56:42.062Z,5.30
2018-01-15T18:58:56.232Z,5.30
2018-01-15T19:03:08.741Z,5.30
2018-01-15T19:05:13.323Z,5.30
2018-01-15T19:07:15.504Z,5.30
2018-01-15T19:09:18.710Z,5.40
2018-01-15T19:11:19.768Z,5.40
2018-01-15T19:13:21.638Z,5.30
2018-01-15T19:15:26.040Z,5.40
2018-01-15T19:17:28.389Z,5.40
2018-01-15T19:19:29.504Z,5.40
2018-01-15T19:21:32.433Z,5.30
2018-01-15T19:23:38.716Z,5.30
2018-01-15T19:26:02.233Z,5.30
2018-01-15T19:28:03.343Z,5.20
2018-01-15T19:30:04.351Z,5.20
2018-01-15T19:32:05.431Z,5.10
2018-01-15T19:34:06.529Z,5.20
2018-01-15T19:36:16.505Z,5.10
2018-01-15T19:38:19.341Z,5.10
2018-01-15T19:43:01.403Z,5.10
2018-01-15T19:45:08.431Z,5.10
2018-01-15T19:47:15.607Z,5.10
2018-01-15T19:49:31.600Z,5.00
2018-01-15T19:51:38.733Z,5.10
2018-01-15T19:53:47.516Z,5.10
2018-01-15T19:58:13.088Z,5.10
2018-01-15T20:02:57.997Z,5.20
2018-01-15T20:05:15.966Z,5.20
2018-01-15T20:07:25.672Z,5.10
2018-01-15T20:09:41.411Z,5.10
2018-01-15T20:11:42.580Z,5.10
2018-01-15T20:13:43.644Z,5.10
2018-01-15T20:15:44.805Z,5.10
2018-01-15T20:17:45.882Z,5.00
2018-01-15T20:19:47.154Z,5.00
2018-01-15T20:28:47.414Z,4.90
2018-01-15T20:30:48.723Z,5.00
2018-01-15T20:32:53.135Z,5.00
2018-01-15T20:34:54.316Z,5.00
2018-01-15T20:37:01.219Z,5.00
2018-01-15T20:39:09.619Z,5.00
2018-01-15T20:41:11.288Z,5.00
2018-01-15T20:43:31.219Z,5.00
2018-01-15T20:45:36.563Z,5.00
2018-01-15T20:47:39.188Z,5.10
2018-01-15T20:49:40.654Z,5.00
2018-01-15T20:51:41.759Z,5.00
2018-01-15T20:53:45.396Z,5.00
2018-01-15T20:58:05.915Z,5.10
2018-01-15T21:13:15.744Z,5.00
2018-01-15T21:15:16.919Z,5.00
2018-01-15T21:17:17.970Z,4.90
2018-01-15T21:19:36.839Z,4.90
2018-01-15T21:21:38.954Z,4.80
2018-01-15T21:26:08.225Z,4.90
2018-01-15T21:28:09.280Z,5.00
2018-01-15T21:30:10.385Z,5.00
2018-01-15T21:38:47.089Z,5.00
2018-01-15T21:40:54.384Z,5.00
2018-01-15T21:42:55.523Z,5.00
2018-01-15T21:47:34.504Z,5.00
2018-01-15T21:49:35.471Z,5.10
2018-01-15T21:51:37.513Z,5.20
2018-01-15T21:53:38.540Z,5.10
2018-01-15T21:58:17.664Z,5.20
2018-01-15T22:00:19.305Z,5.10
2018-01-15T22:05:09.042Z,5.10
2018-01-15T22:09:37.823Z,5.10
2018-01-15T22:14:18.222Z,5.20
2018-01-15T22:26:28.832Z,5.10
2018-01-15T22:30:53.537Z,5.00
2018-01-15T22:32:57.630Z,5.00
2018-01-15T22:35:00.301Z,5.10
2018-01-15T22:37:51.307Z,5.00
2018-01-15T22:39:52.369Z,5.10
2018-01-15T22:41:53.488Z,5.10
2018-01-15T22:43:54.552Z,5.10
2018-01-15T22:46:16.805Z,5.00
2018-01-15T22:48:25.338Z,5.00
2018-01-15T22:58:26.727Z,5.00
2018-01-15T23:00:28.569Z,4.90
2018-01-15T23:05:15.238Z,5.00
2018-01-15T23:07:16.208Z,4.90
2018-01-15T23:09:17.195Z,5.00
2018-01-15T23:11:18.299Z,5.00
2018-01-15T23:18:35.196Z,5.00
2018-01-15T23:20:39.255Z,5.00
2018-01-15T23:22:51.224Z,5.00
2018-01-15T23:24:52.281Z,5.00
2018-01-15T23:26:53.257Z,4.90
2018-01-15T23:28:54.327Z,4.90
2018-01-15T23:33:41.115Z,4.90
2018-01-15T23:44:17.796Z,4.90
2018-01-15T23:51:29.868Z,4.80
2018-01-15T23:53:31.027Z,4.80
2018-01-15T23:55:32.047Z,4.90
2018-01-15T23:57:34.108Z,4.80
2018-01-15T23:59:38.222Z,4.80
